Neotsu, OR (97364)

10:15 AM PST on December 20, 2014 (GMT -0800)
Coronado Shores Beach Club | Change Station
CLOSE
Current Station
Personal Weather Station
Location: Gleneden Beach, OR
Elevation: 72 ft
Nearby Weather Stations

Elev 72 ft 44.87 °N, 124.04 °W | Updated 4 minutes ago

Rain
Rain
55.3 °F
Feels Like 55.3 °F
N
2.0
Wind Variable Wind from WNW
Gusts 23.0 mph

Today
High -- | Low -- °F
--% Chance of Precip.
Yesterday
High -- | Low -- °F
Precip. -- in
7:50 AM 4:36 PM
Waning Crescent, 2% visible
Pressure 29.70 in
Visibility 1.2 miles
Clouds Overcast 500 ft
Dew Point 55 °F
Humidity 98%
Rainfall 1.71 in
Snow Depth Not available.
UV 0.0 out of 12
Pollen .50 out of 12
Air Quality Not available.
Flu Activity Not available.
METAR KONP 201755Z AUTO 19026G33KT 1 1/4SM +RA OVC005 12/12 A2970 RMK AO2 P0020

More Conditions Fewer Conditions

Pressure 29.70 in
Visibility 1.2 miles
Clouds Overcast 500 ft
Dew Point 55 °F
Humidity 98%
Rainfall 1.71 in
Snow Depth Not available.
UV 0.0 out of 12
Pollen .50 out of 12
Air Quality Not available.
Flu Activity Not available.
METAR KONP 201755Z AUTO 19026G33KT 1 1/4SM +RA OVC005 12/12 A2970 RMK AO2 P0020

More Conditions Fewer Conditions

10-Day Weather Forecast

Almanac

Astronomy

Dec. 20, 2014 Rise Set
Actual Time
Civil Twilight
Nautical Twilight
Astronomical Twilight
Moon
Length of Visible Light
Length of Day
Tomorrow will be .
, % of the Moon is Illuminated

Today's Extremes

State Highs State Lows

Community

WunderPhotos

Upload Photos

1,779,237 photos uploaded!

WunderBlogs® & News

Nearby

Air Quality

  Air Quality AQ Index Pollutant
Not available.

Snow Depth

Station Depth Elevation

Earthquake Activity

City Distance Mag. Time & Date
Minimum magnitude displayed is 2.5.

Coastal Water Temperatures

Place Temperature

Nearby Weather Stations